createdAt,value
2018-02-13T00:01:50.520Z,81.16
2018-02-13T00:04:18.358Z,82.19
2018-02-13T00:06:47.178Z,81.37
2018-02-13T00:09:14.858Z,82.01
2018-02-13T00:11:42.515Z,81.89
2018-02-13T00:14:10.923Z,81.36
2018-02-13T00:16:39.830Z,80.99
2018-02-13T00:19:08.066Z,81.07
2018-02-13T00:21:36.251Z,80.73
2018-02-13T00:24:03.774Z,80.63
2018-02-13T00:26:33.889Z,80.53
2018-02-13T00:29:01.779Z,81.16
2018-02-13T00:31:30.779Z,81.53
2018-02-13T00:33:59.285Z,81.25
2018-02-13T00:36:26.889Z,82.33
2018-02-13T00:38:55.748Z,81.51
2018-02-13T00:41:24.489Z,81.11
2018-02-13T00:43:52.791Z,81.68
2018-02-13T00:46:21.044Z,81.47
2018-02-13T00:48:48.599Z,81.52
2018-02-13T00:51:16.466Z,81.77
2018-02-13T00:53:46.652Z,81.63
2018-02-13T00:56:14.453Z,81.44
2018-02-13T00:58:42.058Z,81.86
2018-02-13T01:01:09.721Z,81.91
2018-02-13T01:03:37.495Z,82.68
2018-02-13T01:06:05.690Z,82.62
2018-02-13T01:08:33.234Z,82.43
2018-02-13T01:11:00.776Z,82.12
2018-02-13T01:13:28.670Z,82.55
2018-02-13T01:15:56.198Z,82.27
2018-02-13T01:18:24.276Z,81.92
2018-02-13T01:20:51.846Z,81.70
2018-02-13T01:23:20.005Z,81.52
2018-02-13T01:25:47.733Z,81.57
2018-02-13T01:28:15.284Z,81.75
2018-02-13T01:30:42.890Z,82.44
2018-02-13T01:33:10.437Z,82.62
2018-02-13T01:35:43.789Z,82.24
2018-02-13T01:38:12.018Z,81.70
2018-02-13T01:40:39.897Z,81.52
2018-02-13T01:43:07.582Z,81.68
2018-02-13T01:45:35.299Z,82.23
2018-02-13T01:48:02.976Z,81.74
2018-02-13T01:50:30.635Z,81.43
2018-02-13T01:52:58.254Z,81.73
2018-02-13T01:55:25.938Z,81.94
2018-02-13T01:57:53.624Z,82.07
2018-02-13T02:00:21.163Z,81.98
2018-02-13T02:02:48.766Z,82.20
2018-02-13T02:05:16.297Z,81.79
2018-02-13T02:07:43.867Z,81.81
2018-02-13T02:10:11.420Z,81.87
2018-02-13T02:12:38.974Z,82.32
2018-02-13T02:15:06.556Z,81.73
2018-02-13T02:17:34.080Z,81.85
2018-02-13T02:20:01.654Z,82.01
2018-02-13T02:22:29.181Z,81.91
2018-02-13T02:24:56.734Z,82.16
2018-02-13T02:27:24.334Z,82.07
2018-02-13T02:29:51.940Z,81.96
2018-02-13T02:32:20.442Z,81.96
2018-02-13T02:34:47.966Z,83.25
2018-02-13T02:37:15.523Z,82.85
2018-02-13T02:39:43.152Z,82.61
2018-02-13T02:42:10.704Z,83.15
2018-02-13T02:44:38.271Z,83.69
2018-02-13T02:47:05.907Z,82.44
2018-02-13T02:49:33.434Z,82.07
2018-02-13T02:52:01.011Z,82.51
2018-02-13T02:54:28.615Z,82.38
2018-02-13T02:56:56.273Z,82.16
2018-02-13T02:59:23.834Z,82.44
2018-02-13T03:01:51.368Z,82.62
2018-02-13T03:04:18.921Z,82.28
2018-02-13T03:06:46.442Z,82.82
2018-02-13T03:09:13.994Z,82.11
2018-02-13T03:11:41.557Z,82.16
2018-02-13T03:14:09.105Z,82.80
2018-02-13T03:16:36.635Z,82.42
2018-02-13T03:19:04.184Z,82.93
2018-02-13T03:21:31.714Z,82.73
2018-02-13T03:23:59.313Z,83.13
2018-02-13T03:26:26.840Z,84.13
2018-02-13T03:28:54.365Z,83.13
2018-02-13T03:31:21.929Z,83.24
2018-02-13T03:33:49.447Z,82.64
2018-02-13T03:36:17.017Z,83.73
2018-02-13T03:38:44.577Z,83.18
2018-02-13T03:41:12.249Z,82.67
2018-02-13T03:43:39.785Z,82.64
2018-02-13T03:46:07.459Z,83.01
2018-02-13T03:48:35.067Z,82.36
2018-02-13T03:51:02.726Z,82.46
2018-02-13T03:53:31.469Z,83.91
2018-02-13T03:56:00.870Z,84.54
2018-02-13T03:58:30.238Z,84.67
2018-02-13T04:00:57.835Z,83.76
2018-02-13T04:03:25.402Z,84.37
2018-02-13T04:05:52.952Z,83.23
2018-02-13T04:08:20.724Z,82.75
2018-02-13T04:10:49.607Z,82.91
2018-02-13T04:13:17.134Z,82.89
2018-02-13T04:15:44.762Z,82.87
2018-02-13T04:18:12.295Z,84.36
2018-02-13T04:20:39.846Z,83.61
2018-02-13T04:23:07.402Z,83.70
2018-02-13T04:25:34.976Z,83.45
2018-02-13T04:28:02.522Z,82.52
2018-02-13T04:30:30.194Z,82.70
2018-02-13T04:32:57.852Z,82.73
2018-02-13T04:35:25.449Z,82.78
2018-02-13T04:37:52.981Z,82.95
2018-02-13T04:40:20.830Z,83.08
2018-02-13T04:42:48.505Z,83.05
2018-02-13T04:45:16.063Z,82.44
2018-02-13T04:47:43.637Z,82.86
2018-02-13T04:50:11.168Z,83.66
2018-02-13T04:52:38.798Z,84.75
2018-02-13T04:55:06.303Z,85.19
2018-02-13T04:57:33.951Z,85.29
2018-02-13T05:00:01.479Z,83.95
2018-02-13T05:02:29.073Z,83.60
2018-02-13T05:04:56.732Z,83.99
2018-02-13T05:07:24.261Z,83.95
2018-02-13T05:09:51.810Z,83.72
2018-02-13T05:12:19.336Z,83.21
2018-02-13T05:14:46.890Z,83.09
2018-02-13T05:17:14.418Z,83.07
2018-02-13T05:19:42.001Z,82.72
2018-02-13T05:22:09.596Z,83.24
2018-02-13T05:24:37.150Z,83.08
2018-02-13T05:27:04.674Z,83.09
2018-02-13T05:29:32.253Z,83.18
2018-02-13T05:31:59.805Z,82.96
2018-02-13T05:34:27.454Z,82.55
2018-02-13T05:36:55.011Z,82.59
2018-02-13T05:39:22.564Z,82.66
2018-02-13T05:41:51.142Z,82.87
2018-02-13T05:44:18.720Z,82.57
2018-02-13T05:46:46.294Z,82.64
2018-02-13T05:49:13.823Z,82.51
2018-02-13T05:51:41.383Z,82.34
2018-02-13T05:54:08.926Z,82.26
2018-02-13T05:56:36.555Z,82.22
2018-02-13T05:59:04.174Z,82.19
2018-02-13T06:01:31.781Z,82.44
2018-02-13T06:03:59.388Z,82.82
2018-02-13T06:06:26.914Z,82.61
2018-02-13T06:08:54.504Z,82.78
2018-02-13T06:11:22.119Z,84.27
2018-02-13T06:13:49.726Z,84.03
2018-02-13T06:16:17.275Z,83.07
2018-02-13T06:18:44.853Z,82.56
2018-02-13T06:21:12.377Z,83.56
2018-02-13T06:23:39.962Z,83.46
2018-02-13T06:26:07.490Z,83.34
2018-02-13T06:28:35.089Z,82.90
2018-02-13T06:31:02.722Z,84.05
2018-02-13T06:33:30.261Z,83.42
2018-02-13T06:35:57.843Z,84.01
2018-02-13T06:38:25.422Z,83.33
2018-02-13T06:40:53.072Z,83.03
2018-02-13T06:43:20.649Z,83.52
2018-02-13T06:45:48.399Z,83.60
2018-02-13T06:48:15.924Z,83.42
2018-02-13T06:50:43.628Z,82.83
2018-02-13T06:53:11.154Z,83.21
2018-02-13T06:55:38.683Z,82.56
2018-02-13T06:58:06.298Z,83.71
2018-02-13T07:00:33.810Z,84.39
2018-02-13T07:03:01.368Z,83.88
2018-02-13T07:05:28.945Z,83.29
2018-02-13T07:07:56.493Z,82.96
2018-02-13T07:10:24.102Z,82.63
2018-02-13T07:12:52.492Z,82.67
2018-02-13T07:15:20.072Z,82.24
2018-02-13T07:17:47.626Z,82.10
2018-02-13T07:20:15.221Z,82.40
2018-02-13T07:22:42.806Z,82.89
2018-02-13T07:25:10.346Z,83.70
2018-02-13T07:27:37.941Z,82.87
2018-02-13T07:30:05.630Z,82.24
2018-02-13T07:32:33.267Z,82.12
2018-02-13T07:35:00.924Z,82.27
2018-02-13T07:37:28.536Z,82.52
2018-02-13T07:39:58.035Z,82.29
2018-02-13T07:42:25.574Z,82.83
2018-02-13T07:44:53.156Z,82.31
2018-02-13T07:47:20.899Z,82.18
2018-02-13T07:49:48.533Z,82.15
2018-02-13T07:52:16.077Z,82.53
2018-02-13T07:54:43.638Z,82.83
2018-02-13T07:57:11.187Z,82.27
2018-02-13T07:59:38.771Z,82.00
2018-02-13T08:02:06.444Z,82.52
2018-02-13T08:04:33.996Z,82.77
2018-02-13T08:07:01.566Z,82.37
2018-02-13T08:09:29.099Z,82.31
2018-02-13T08:11:56.772Z,82.32
2018-02-13T08:14:24.683Z,83.91
2018-02-13T08:16:53.952Z,83.37
2018-02-13T08:19:26.237Z,82.67
2018-02-13T08:21:54.059Z,82.27
2018-02-13T08:24:22.527Z,82.86
2018-02-13T08:26:51.266Z,83.98
2018-02-13T08:29:18.845Z,83.85
2018-02-13T08:31:46.369Z,82.81
2018-02-13T08:34:14.024Z,82.86
2018-02-13T08:36:41.551Z,82.40
2018-02-13T08:39:09.105Z,82.35
2018-02-13T08:41:36.703Z,82.31
2018-02-13T08:44:04.779Z,82.04
2018-02-13T08:46:32.310Z,81.96
2018-02-13T08:48:59.958Z,82.01
2018-02-13T08:51:29.761Z,82.07
2018-02-13T08:53:58.617Z,81.75
2018-02-13T08:56:26.157Z,81.35
2018-02-13T08:58:53.693Z,81.07
2018-02-13T09:01:21.245Z,80.99
2018-02-13T09:03:50.178Z,80.69
2018-02-13T09:06:17.730Z,80.70
2018-02-13T09:08:45.278Z,80.51
2018-02-13T09:11:12.851Z,79.80
2018-02-13T09:13:40.412Z,79.84
2018-02-13T09:16:09.322Z,80.11
2018-02-13T09:18:36.882Z,79.50
2018-02-13T09:21:04.915Z,79.28
2018-02-13T09:23:33.125Z,79.17
2018-02-13T09:26:00.688Z,78.98
2018-02-13T09:28:28.523Z,78.72
2018-02-13T09:30:56.791Z,78.67
2018-02-13T09:33:24.403Z,78.87
2018-02-13T09:35:52.017Z,78.67
2018-02-13T09:38:19.831Z,78.62
2018-02-13T09:40:47.633Z,78.63
2018-02-13T09:43:15.286Z,78.43
2018-02-13T09:45:42.866Z,76.77
2018-02-13T09:48:10.389Z,75.95
2018-02-13T09:50:38.362Z,75.72
2018-02-13T09:53:05.890Z,75.16
2018-02-13T09:55:33.622Z,75.00
2018-02-13T09:58:01.145Z,74.66
2018-02-13T10:00:31.268Z,75.54
2018-02-13T10:02:59.468Z,74.76
2018-02-13T10:05:27.762Z,73.82
2018-02-13T10:07:55.862Z,74.20
2018-02-13T10:10:36.815Z,74.13
2018-02-13T10:13:05.113Z,74.62
2018-02-13T10:15:32.697Z,72.83
2018-02-13T10:18:00.267Z,71.91
2018-02-13T10:20:28.369Z,70.86
2018-02-13T10:22:56.023Z,70.97
2018-02-13T10:25:23.603Z,71.14
2018-02-13T10:27:51.150Z,70.59
2018-02-13T10:30:18.830Z,70.41
2018-02-13T10:32:46.380Z,69.46
2018-02-13T10:35:13.930Z,69.73
2018-02-13T10:37:41.536Z,69.99
2018-02-13T10:40:09.037Z,70.29
2018-02-13T10:42:36.674Z,69.17
2018-02-13T10:45:05.214Z,68.33
2018-02-13T10:47:32.744Z,68.52
2018-02-13T10:50:00.296Z,69.00
2018-02-13T10:52:33.102Z,67.67
2018-02-13T10:55:00.703Z,67.96
2018-02-13T10:57:28.226Z,66.74
2018-02-13T10:59:57.450Z,67.49
2018-02-13T11:02:25.079Z,67.55
2018-02-13T11:04:52.626Z,65.80
2018-02-13T11:07:20.166Z,64.48
2018-02-13T11:09:47.735Z,63.91
2018-02-13T11:12:15.242Z,64.27
2018-02-13T11:14:42.821Z,63.54
2018-02-13T11:17:12.518Z,63.46
2018-02-13T11:19:40.226Z,62.99
2018-02-13T11:22:07.947Z,63.44
2018-02-13T11:24:35.475Z,61.73
2018-02-13T11:27:04.430Z,61.87
2018-02-13T11:29:31.959Z,60.91
2018-02-13T11:31:59.510Z,61.23
2018-02-13T11:34:27.003Z,59.88
2018-02-13T11:36:54.542Z,61.78
2018-02-13T11:39:22.063Z,60.53
2018-02-13T11:41:49.593Z,58.42
2018-02-13T11:46:46.705Z,58.31
2018-02-13T11:49:14.317Z,59.73
2018-02-13T11:51:44.373Z,59.28
2018-02-13T11:54:12.155Z,59.95
2018-02-13T11:56:39.682Z,59.79
2018-02-13T11:59:07.227Z,57.87
2018-02-13T12:01:34.739Z,58.38
2018-02-13T12:04:04.090Z,56.28
2018-02-13T12:06:31.696Z,56.00
2018-02-13T12:08:59.240Z,57.10
2018-02-13T12:11:27.435Z,56.52
2018-02-13T12:13:55.131Z,56.53
2018-02-13T12:16:22.694Z,58.81
2018-02-13T12:18:50.204Z,56.29
2018-02-13T12:21:17.815Z,55.67
2018-02-13T12:23:45.331Z,52.57
2018-02-13T12:26:15.311Z,52.71
2018-02-13T12:28:43.010Z,50.83
2018-02-13T12:31:10.562Z,50.88
2018-02-13T12:33:38.090Z,51.95
2018-02-13T12:36:06.409Z,51.43
2018-02-13T12:38:33.971Z,51.75
2018-02-13T12:41:01.497Z,51.29
2018-02-13T12:43:29.050Z,51.27
2018-02-13T12:45:56.576Z,51.55
2018-02-13T12:48:24.256Z,49.36
2018-02-13T12:50:51.756Z,49.29
2018-02-13T12:53:19.259Z,49.42
2018-02-13T12:55:46.811Z,49.44
2018-02-13T12:58:14.362Z,48.87
2018-02-13T13:00:42.187Z,50.13
2018-02-13T13:03:09.717Z,49.93
2018-02-13T13:05:37.296Z,47.92
2018-02-13T13:08:04.922Z,48.01
2018-02-13T13:10:32.474Z,49.51
2018-02-13T13:13:00.327Z,49.40
2018-02-13T13:15:27.930Z,48.86
2018-02-13T13:17:55.431Z,48.64
2018-02-13T13:20:25.566Z,48.46
2018-02-13T13:22:53.198Z,48.81
2018-02-13T13:25:20.741Z,47.65
2018-02-13T13:27:53.920Z,49.38
2018-02-13T13:30:21.542Z,49.31
2018-02-13T13:32:49.206Z,47.98
2018-02-13T13:35:18.443Z,46.89
2018-02-13T13:37:45.999Z,47.13
2018-02-13T13:40:14.673Z,47.20
2018-02-13T13:42:42.256Z,49.37
2018-02-13T13:45:09.774Z,47.50
2018-02-13T13:47:37.334Z,49.06
2018-02-13T13:50:04.940Z,48.77
2018-02-13T13:52:32.463Z,49.65
2018-02-13T13:55:00.333Z,48.32
2018-02-13T13:57:27.880Z,48.56
2018-02-13T13:59:55.419Z,48.60
2018-02-13T14:02:24.839Z,49.53
2018-02-13T14:04:52.650Z,50.41
2018-02-13T14:07:20.682Z,48.50
2018-02-13T14:09:49.651Z,48.75
2018-02-13T14:12:17.202Z,48.41
2018-02-13T14:14:44.781Z,47.80
2018-02-13T14:17:12.385Z,48.69
2018-02-13T14:19:39.904Z,47.12
2018-02-13T14:22:07.439Z,47.71
2018-02-13T14:24:34.943Z,46.21
2018-02-13T14:27:02.593Z,47.21
2018-02-13T14:29:30.117Z,47.42
2018-02-13T14:31:57.726Z,45.93
2018-02-13T14:34:25.250Z,44.85
2018-02-13T14:36:53.261Z,44.18
2018-02-13T14:39:21.474Z,45.54
2018-02-13T14:41:48.982Z,44.98
2018-02-13T14:44:16.534Z,44.63
2018-02-13T14:46:44.065Z,45.29
2018-02-13T14:49:11.645Z,45.33
2018-02-13T14:51:39.170Z,45.65
2018-02-13T14:54:07.121Z,43.99
2018-02-13T14:56:39.821Z,44.39
2018-02-13T14:59:07.674Z,43.54
2018-02-13T15:01:36.349Z,43.51
2018-02-13T15:04:03.902Z,44.53
2018-02-13T15:06:32.134Z,42.11
2018-02-13T15:08:59.721Z,44.43
2018-02-13T15:11:27.762Z,42.40
2018-02-13T15:13:55.288Z,43.13
2018-02-13T15:16:22.892Z,43.06
2018-02-13T15:18:50.392Z,43.37
2018-02-13T15:21:18.143Z,43.05
2018-02-13T15:23:46.105Z,43.04
2018-02-13T15:26:13.698Z,42.52
2018-02-13T15:28:41.224Z,43.05
2018-02-13T15:31:08.794Z,44.24
2018-02-13T15:33:37.277Z,43.42
2018-02-13T15:36:04.784Z,43.77
2018-02-13T15:38:32.335Z,43.96
2018-02-13T15:40:59.862Z,43.37
2018-02-13T15:43:27.467Z,43.29
2018-02-13T15:45:54.990Z,43.38
2018-02-13T15:48:22.569Z,43.20
2018-02-13T15:50:50.071Z,43.75
2018-02-13T15:53:17.586Z,42.92
2018-02-13T15:55:45.151Z,43.41
2018-02-13T15:58:12.729Z,43.79
2018-02-13T16:00:40.281Z,44.02
2018-02-13T16:03:08.657Z,43.95
2018-02-13T16:05:36.195Z,44.49
2018-02-13T16:08:03.737Z,43.86
2018-02-13T16:10:31.868Z,43.23
2018-02-13T16:12:59.458Z,44.68
2018-02-13T16:15:27.023Z,43.33
2018-02-13T16:17:54.796Z,45.01
2018-02-13T16:20:24.200Z,44.93
2018-02-13T16:22:52.800Z,44.16
2018-02-13T16:25:20.831Z,45.72
2018-02-13T16:27:49.777Z,45.91
2018-02-13T16:30:18.046Z,46.27
2018-02-13T16:32:46.759Z,46.41
2018-02-13T16:35:14.564Z,45.84
2018-02-13T16:37:42.359Z,44.81
2018-02-13T16:40:11.702Z,46.85
2018-02-13T16:42:39.343Z,46.77
2018-02-13T16:45:07.850Z,47.70
2018-02-13T16:47:36.373Z,48.18
2018-02-13T16:50:03.898Z,47.76
2018-02-13T16:52:31.424Z,47.82
2018-02-13T16:54:59.792Z,47.71
2018-02-13T16:57:27.308Z,48.07
2018-02-13T16:59:55.209Z,48.04
2018-02-13T17:02:23.050Z,49.00
2018-02-13T17:04:50.739Z,49.62
2018-02-13T17:07:18.488Z,50.02
2018-02-13T17:09:46.446Z,50.31
2018-02-13T17:12:13.996Z,51.87
2018-02-13T17:14:42.217Z,52.40
2018-02-13T17:17:10.462Z,53.42
2018-02-13T17:19:38.337Z,53.05
2018-02-13T17:22:08.784Z,52.14
2018-02-13T17:24:36.539Z,51.94
2018-02-13T17:27:04.546Z,52.28
2018-02-13T17:29:32.563Z,54.33
2018-02-13T17:32:00.233Z,53.88
2018-02-13T17:34:28.116Z,53.17
2018-02-13T17:36:56.123Z,54.64
2018-02-13T17:39:24.186Z,53.94
2018-02-13T17:41:52.322Z,54.82
2018-02-13T17:44:21.836Z,56.35
2018-02-13T17:46:51.583Z,56.98
2018-02-13T17:49:19.397Z,58.02
2018-02-13T17:51:47.488Z,57.78
2018-02-13T17:54:15.096Z,58.09
2018-02-13T17:56:42.829Z,58.53
2018-02-13T17:59:10.661Z,59.17
2018-02-13T18:01:38.190Z,60.30
2018-02-13T18:04:06.592Z,60.37
2018-02-13T18:06:36.274Z,60.89
2018-02-13T18:09:06.812Z,60.95
2018-02-13T18:11:35.317Z,61.58
2018-02-13T18:14:04.880Z,61.73
2018-02-13T18:16:34.057Z,62.24
2018-02-13T18:19:02.927Z,63.02
2018-02-13T18:21:30.733Z,63.34
2018-02-13T18:24:03.300Z,63.23
2018-02-13T18:26:33.624Z,63.50
2018-02-13T18:29:03.083Z,64.01
2018-02-13T18:31:31.295Z,63.85
2018-02-13T18:34:00.815Z,64.58
2018-02-13T18:36:28.477Z,64.53
2018-02-13T18:38:56.838Z,64.59
2018-02-13T18:41:26.477Z,64.94
2018-02-13T18:43:56.654Z,65.55
2018-02-13T18:46:25.134Z,65.76
2018-02-13T18:48:52.983Z,66.05
2018-02-13T18:51:21.006Z,67.22
2018-02-13T18:53:48.590Z,66.31
2018-02-13T18:56:16.111Z,65.59
2018-02-13T18:58:43.675Z,66.98
2018-02-13T19:01:11.196Z,66.63
2018-02-13T19:03:38.755Z,65.81
2018-02-13T19:06:06.333Z,65.69
2018-02-13T19:08:33.882Z,66.19
2018-02-13T19:11:01.405Z,66.40
2018-02-13T19:13:28.983Z,66.27
2018-02-13T19:15:56.510Z,66.58
2018-02-13T19:18:24.111Z,66.30
2018-02-13T19:20:51.639Z,66.96
2018-02-13T19:23:19.170Z,66.50
2018-02-13T19:25:46.716Z,66.62
2018-02-13T19:28:14.270Z,66.99
2018-02-13T19:30:41.851Z,67.20
2018-02-13T19:33:09.395Z,67.01
2018-02-13T19:35:37.029Z,66.72
2018-02-13T19:38:04.555Z,67.18
2018-02-13T19:40:32.131Z,67.27
2018-02-13T19:42:59.683Z,67.33
2018-02-13T19:45:27.236Z,68.76
2018-02-13T19:47:54.795Z,69.82
2018-02-13T19:50:22.337Z,69.85
2018-02-13T19:52:49.895Z,68.26
2018-02-13T19:55:17.427Z,67.41
2018-02-13T19:57:45.078Z,67.17
2018-02-13T20:00:12.609Z,66.91
2018-02-13T20:02:40.270Z,67.98
2018-02-13T20:05:08.306Z,67.82
2018-02-13T20:07:36.207Z,67.77
2018-02-13T20:10:05.509Z,68.01
2018-02-13T20:12:33.262Z,69.07
2018-02-13T20:15:00.831Z,68.65
2018-02-13T20:17:28.422Z,69.30
2018-02-13T20:19:55.994Z,69.55
2018-02-13T20:22:23.534Z,69.29
2018-02-13T20:24:51.099Z,69.45
2018-02-13T20:27:18.625Z,69.71
2018-02-13T20:29:46.255Z,69.86
2018-02-13T20:32:13.778Z,70.76
2018-02-13T20:34:41.310Z,70.83
2018-02-13T20:37:08.947Z,70.85
2018-02-13T20:39:36.566Z,70.64
2018-02-13T20:42:04.138Z,70.41
2018-02-13T20:44:31.665Z,70.11
2018-02-13T20:46:59.307Z,69.95
2018-02-13T20:49:26.865Z,69.72
2018-02-13T20:51:54.524Z,69.37
2018-02-13T20:54:22.049Z,69.64
2018-02-13T20:56:49.651Z,69.15
2018-02-13T20:59:17.207Z,69.28
2018-02-13T21:01:44.758Z,70.03
2018-02-13T21:04:13.008Z,70.20
2018-02-13T21:06:40.612Z,70.63
2018-02-13T21:09:08.568Z,71.45
2018-02-13T21:11:36.115Z,70.50
2018-02-13T21:14:03.762Z,70.83
2018-02-13T21:16:32.473Z,71.17
2018-02-13T21:19:00.172Z,70.58
2018-02-13T21:21:28.522Z,70.78
2018-02-13T21:23:56.077Z,70.49
2018-02-13T21:26:23.631Z,70.64
2018-02-13T21:28:51.398Z,70.58
2018-02-13T21:31:18.983Z,70.79
2018-02-13T21:33:46.596Z,70.46
2018-02-13T21:36:14.903Z,70.46
2018-02-13T21:38:42.476Z,70.44
2018-02-13T21:41:10.147Z,70.44
2018-02-13T21:43:38.903Z,70.28
2018-02-13T21:46:07.750Z,72.09
2018-02-13T21:48:37.548Z,71.43
2018-02-13T21:51:05.251Z,71.26
2018-02-13T21:53:33.776Z,71.70
2018-02-13T21:56:01.309Z,70.19
2018-02-13T21:58:28.969Z,70.23
2018-02-13T22:00:56.510Z,70.57
2018-02-13T22:03:24.091Z,71.09
2018-02-13T22:05:51.661Z,69.99
2018-02-13T22:08:22.041Z,70.12
2018-02-13T22:10:49.972Z,71.28
2018-02-13T22:13:17.772Z,70.40
2018-02-13T22:15:46.404Z,70.10
2018-02-13T22:18:16.844Z,70.01
2018-02-13T22:20:44.480Z,70.12
2018-02-13T22:23:12.150Z,70.84
2018-02-13T22:25:39.712Z,70.79
2018-02-13T22:28:07.361Z,71.41
2018-02-13T22:30:34.941Z,70.91
2018-02-13T22:33:02.466Z,70.20
2018-02-13T22:35:31.014Z,70.50
2018-02-13T22:37:58.990Z,70.28
2018-02-13T22:40:27.922Z,69.96
2018-02-13T22:42:55.473Z,70.80
2018-02-13T22:45:23.897Z,70.76
2018-02-13T22:47:51.502Z,70.60
2018-02-13T22:50:19.081Z,71.59
2018-02-13T22:52:46.753Z,72.74
2018-02-13T22:55:14.288Z,72.40
2018-02-13T22:57:42.066Z,71.30
2018-02-13T23:00:13.270Z,70.87
2018-02-13T23:02:42.017Z,70.55
2018-02-13T23:05:12.137Z,70.62
2018-02-13T23:07:41.483Z,70.43
2018-02-13T23:10:10.204Z,70.39
2018-02-13T23:12:38.242Z,71.28
2018-02-13T23:15:07.380Z,71.36
2018-02-13T23:17:37.202Z,71.23
2018-02-13T23:20:05.255Z,70.87
2018-02-13T23:22:33.185Z,70.52
2018-02-13T23:25:01.593Z,70.20
2018-02-13T23:27:30.962Z,70.20
2018-02-13T23:29:59.288Z,70.19
2018-02-13T23:32:26.844Z,70.91
2018-02-13T23:34:54.398Z,72.76
2018-02-13T23:37:23.567Z,71.56
2018-02-13T23:39:52.166Z,71.99
2018-02-13T23:42:21.255Z,71.74
2018-02-13T23:44:49.256Z,71.76
2018-02-13T23:47:19.010Z,71.61
2018-02-13T23:49:47.854Z,71.91
2018-02-13T23:52:15.917Z,71.58
2018-02-13T23:54:44.866Z,71.71
2018-02-13T23:57:14.513Z,71.96
2018-02-13T23:59:42.271Z,71.99
